Leavenworth, Indiana
Current Conditions -  °F | °C
As of 11:58 PM on Friday 24 Oct 2014 (Local Time) from KFTK Reporting Station
Clear Clear  
Wind Chill: 48°   Ceiling: Unl
Heat Index: 48°   Visibility: 9mi
Dew Point: 47°   Wind: 0mph
Humidity: 96%   Direction: NA
Pressure: 30.06"   Gusts: NA
Location:  38.2°N, 86.34°W
Report Text: KFTK 250358Z AUTO 00000KT 9SM R18/5500FT CLR 09/08 A3006 RMK AO2 SLP182 T00870081
Loading
Personal Weather Stations






























Interactive Weather Map
Tropical Storm Tracking
New forecast layout! Learn more

10-Day Weather Forecast

Advertisements
Track Severe Weather on mobile